Hlavní strana
METAR-TAF:

METAR-TAF

Letiště :

Ghriss, Alžírsko

zeměpisná šířka: 35-12N, zeměpisná délka: 000-08E, výška: 514 m

Aktuální stav počasí

Zpráva byla vytvořena před 44 minutami, v 04:00 UTC
Jihojihovýchodní vítr 3 kt
Teplota 15°C
Vlhkost vzduchu 82%
Tlak 1022 hPa
Viditelnost 10 km a více
Žádná oblačnost pod 1500 m, nevyskytují se cumulonimby.

METAR: DAOV 260400Z 15003KT CAVOK 15/12 Q1022

Čas: 05:44 (04:44 UTC)

Předpověď počasí

Zpráva byla vytvořena před 2 hodinami a 44 minutami, v 02:00 UTC
Předpověď platná od 26 v 03 UTC do 26 v 12 UTC
vítr z různých směrů 2 kt
Viditelnost 10 km a více
Skoro jasno ve výšce 2000 ft
Polojasno ve výšce 20000 ft
Změna
od 26 v 10 UTC do 26 v 12 UTC
Severoseverovýchodní vítr 8 kt

TAF: DAOV 260200Z 2603/2612 VRB02KT 9999 FEW020 SCT200 BECMG 2610/2612 02008KT

Stav a předpovědi počasí z více než 4 000 letišť (zprávy METAR a TAF).

Červené a žluté tečky na mapě představují dostupné meteorologické stanice.

Když kurzor umístíte na tečku, zobrazí se název stanice.

Pak kliknutím zobrazíte stav a předpověď počasí.

Chcete-li změnit mapu, kliknutím na zelené tlačítko se znaménkem +mapu přiblížíte, kliknutím na zelené tlačítko se znaménkem – mapu oddálíte a kliknutím na zelené šipky přejdete na sousední mapy.


METAR-TAF: